Time;durP1;ratioP1;P1;durP2;ratioP2;P2;SDS_P1;SDS_P2;PMS_P1;PMS_P2;Temp;Humidity;BMP_temperature;BMP_pressure;BME280_temperature;BME280_humidity;BME280_pressure;Samples;Min_cycle;Max_cycle;Signal;HPM_P1;HPM_P2
2022/04/05 00:02:07;;;;;;;10.70;4.53;;;;;;;7.36;96.91;100382.13;4981155;28;20054;-60
2022/04/05 00:04:33;;;;;;;10.65;5.18;;;;;;;7.30;97.40;100377.19;4963507;28;20038;-60
2022/04/05 00:06:58;;;;;;;15.13;5.35;;;;;;;7.27;96.91;100380.84;4982263;28;20097;-61
2022/04/05 00:09:24;;;;;;;13.27;5.55;;;;;;;7.22;96.98;100385.56;4981421;28;20124;-61
2022/04/05 00:11:49;;;;;;;12.45;5.75;;;;;;;7.21;97.49;100383.84;4981605;28;20049;-60
2022/04/05 00:14:15;;;;;;;17.00;6.47;;;;;;;7.22;97.54;100385.56;4980999;28;20050;-61
2022/04/05 00:16:40;;;;;;;20.48;6.90;;;;;;;7.22;97.58;100394.38;4981783;28;20046;-60
2022/04/05 00:19:05;;;;;;;17.75;7.32;;;;;;;7.21;97.21;100394.47;4981183;28;20053;-61
2022/04/05 00:21:31;;;;;;;20.33;6.95;;;;;;;7.20;97.84;100392.75;4963754;28;20510;-62
2022/04/05 00:23:56;;;;;;;17.15;7.40;;;;;;;7.21;97.35;100403.28;4963523;28;20054;-63
2022/04/05 00:26:22;;;;;;;25.30;7.75;;;;;;;7.22;97.23;100396.16;4982168;28;20050;-61
2022/04/05 00:28:47;;;;;;;21.42;7.38;;;;;;;7.31;97.34;100400.09;4982563;28;20097;-61
2022/04/05 00:31:12;;;;;;;13.98;6.68;;;;;;;7.23;96.65;100401.41;4982423;28;20038;-61
2022/04/05 00:33:39;;;;;;;18.23;7.10;;;;;;;7.28;96.96;100398.50;4964035;28;20463;-61
2022/04/05 00:36:04;;;;;;;15.00;5.72;;;;;;;7.28;96.67;100406.44;4981785;28;20797;-61
2022/04/05 00:38:30;;;;;;;19.33;7.25;;;;;;;7.20;96.79;100401.56;4981151;28;20112;-61
2022/04/05 00:40:55;;;;;;;13.52;5.55;;;;;;;7.26;96.93;100409.16;4981286;28;20042;-63
2022/04/05 00:43:20;;;;;;;15.15;6.18;;;;;;;7.23;96.67;100405.84;4981014;28;20046;-61
2022/04/05 00:45:46;;;;;;;12.55;5.63;;;;;;;7.19;96.86;100404.31;4981164;28;20049;-60
2022/04/05 00:48:21;;;;;;;12.75;5.28;;;;;;;7.18;97.13;100410.56;4981295;28;20389;-61
2022/04/05 00:50:46;;;;;;;15.18;5.45;;;;;;;7.14;97.26;100401.06;4981683;28;20042;-61
2022/04/05 00:53:12;;;;;;;12.55;4.60;;;;;;;7.16;97.20;100401.81;4980863;28;20886;-61
2022/04/05 00:55:39;;;;;;;12.68;4.43;;;;;;;7.18;97.28;100405.25;4981186;28;20057;-60
2022/04/05 00:58:06;;;;;;;6.95;4.18;;;;;;;7.13;97.59;100412.59;4981094;28;20065;-60
2022/04/05 01:00:32;;;;;;;11.23;4.25;;;;;;;7.13;97.34;100416.13;4969011;28;20372;-61
2022/04/05 01:02:59;;;;;;;10.85;4.60;;;;;;;7.18;97.21;100414.06;4961583;28;20137;-60
2022/04/05 01:05:26;;;;;;;12.77;3.30;;;;;;;7.21;96.81;100413.88;4961588;28;20034;-61
2022/04/05 01:07:54;;;;;;;13.50;3.10;;;;;;;7.11;96.97;100422.44;4961163;28;20044;-61
2022/04/05 01:10:21;;;;;;;4.93;3.22;;;;;;;7.11;96.83;100425.94;4962160;28;20035;-61
2022/04/05 01:12:48;;;;;;;3.72;2.75;;;;;;;7.16;96.39;100436.28;4960520;28;20515;-60
2022/04/05 01:15:14;;;;;;;5.82;2.33;;;;;;;7.11;96.02;100433.91;4960614;28;20042;-60
2022/04/05 01:17:39;;;;;;;5.32;2.35;;;;;;;7.08;96.89;100438.50;4943320;28;20077;-61
2022/04/05 01:20:05;;;;;;;3.60;2.20;;;;;;;7.07;96.06;100432.34;4960722;28;20069;-61
2022/04/05 01:22:30;;;;;;;3.85;2.55;;;;;;;7.06;96.77;100430.63;4961304;28;20050;-61
2022/04/05 01:24:56;;;;;;;3.95;2.15;;;;;;;7.11;96.59;100428.59;4960969;28;20043;-62
2022/04/05 01:27:27;;;;;;;6.38;2.60;;;;;;;7.11;96.25;100433.03;4960958;28;20159;-61
2022/04/05 01:29:52;;;;;;;6.80;2.70;;;;;;;7.18;96.38;100426.47;4960967;28;20047;-62
2022/04/05 01:32:18;;;;;;;5.97;3.00;;;;;;;7.13;96.81;100415.25;4960373;28;20057;-60
2022/04/05 01:34:43;;;;;;;4.88;2.70;;;;;;;7.17;96.58;100417.63;4960620;28;20042;-61
2022/04/05 01:37:10;;;;;;;5.95;3.65;;;;;;;7.17;96.95;100422.09;4961141;28;20814;-60
2022/04/05 01:39:38;;;;;;;4.95;2.83;;;;;;;7.25;96.30;100419.88;4942904;28;20511;-60
2022/04/05 01:42:05;;;;;;;5.93;3.15;;;;;;;7.24;96.69;100407.56;4961008;28;20049;-60
2022/04/05 01:44:32;;;;;;;7.03;3.20;;;;;;;7.19;96.34;100412.28;4966663;28;20074;-60
2022/04/05 01:47:01;;;;;;;8.73;3.47;;;;;;;7.14;96.40;100420.47;4962151;28;20100;-60
2022/04/05 01:49:27;;;;;;;7.93;3.03;;;;;;;7.17;96.81;100422.94;4979896;28;20054;-60
2022/04/05 01:51:52;;;;;;;7.38;2.88;;;;;;;7.14;96.81;100424.94;4980055;28;20118;-61
2022/04/05 01:54:18;;;;;;;8.38;2.88;;;;;;;7.15;96.70;100423.97;4980223;28;20042;-61
2022/04/05 01:56:49;;;;;;;7.60;3.20;;;;;;;7.15;96.79;100426.63;4980089;28;20463;-61
2022/04/05 01:59:17;;;;;;;9.35;3.08;;;;;;;7.18;96.99;100431.78;4978008;28;20407;-60
2022/04/05 02:01:43;;;;;;;7.95;2.97;;;;;;;7.17;96.25;100436.19;4959342;28;20050;-61
2022/04/05 02:04:10;;;;;;;7.18;2.83;;;;;;;7.19;96.54;100430.84;4943095;28;20039;-60
2022/04/05 02:06:41;;;;;;;6.50;2.88;;;;;;;7.16;96.68;100447.75;4959161;28;20046;-60
2022/04/05 02:09:07;;;;;;;5.85;3.00;;;;;;;7.16;95.93;100442.44;4960679;28;20038;-61
2022/04/05 02:11:35;;;;;;;9.57;3.00;;;;;;;7.12;95.98;100438.25;4958441;28;20127;-61
2022/04/05 02:14:09;;;;;;;6.10;3.38;;;;;;;7.10;96.19;100440.16;4958549;28;20038;-61
2022/04/05 02:16:34;;;;;;;12.35;3.13;;;;;;;7.16;95.72;100433.63;4958823;28;20043;-61
2022/04/05 02:19:03;;;;;;;13.93;3.10;;;;;;;7.03;95.71;100441.44;4942265;28;20043;-61
2022/04/05 02:21:29;;;;;;;7.13;3.33;;;;;;;7.04;96.42;100439.63;4942646;28;20037;-61
2022/04/05 02:23:56;;;;;;;7.18;3.88;;;;;;;7.05;96.18;100433.38;4959871;28;20037;-61
2022/04/05 02:26:27;;;;;;;7.63;3.53;;;;;;;7.03;96.04;100425.53;4946119;28;20058;-61
2022/04/05 02:28:54;;;;;;;6.90;3.50;;;;;;;6.98;95.86;100435.53;4945879;28;20039;-60
2022/04/05 02:31:23;;;;;;;8.75;3.70;;;;;;;6.98;96.50;100425.78;4960885;28;20093;-61
2022/04/05 02:33:51;;;;;;;7.35;3.05;;;;;;;6.97;96.41;100432.00;4945111;28;20039;-60
2022/04/05 02:36:24;;;;;;;6.82;3.75;;;;;;;6.97;96.24;100439.94;4961321;28;20130;-60
2022/04/05 02:38:53;;;;;;;16.58;4.32;;;;;;;6.93;95.83;100433.13;4945177;28;20083;-61
2022/04/05 02:41:19;;;;;;;15.18;4.40;;;;;;;6.89;96.27;100428.09;4961563;28;20495;-61
2022/04/05 02:43:45;;;;;;;17.10;4.93;;;;;;;6.92;96.53;100433.19;4963542;28;20098;-60
2022/04/05 02:46:11;;;;;;;21.45;5.68;;;;;;;6.89;96.37;100434.22;4965275;28;20042;-60
2022/04/05 02:48:46;;;;;;;9.82;4.68;;;;;;;6.89;97.45;100423.63;4949819;28;20050;-60
2022/04/05 02:51:18;;;;;;;16.50;4.97;;;;;;;6.89;97.41;100425.44;4965357;28;20046;-60
2022/04/05 02:53:46;;;;;;;14.93;4.97;;;;;;;6.87;96.85;100428.13;4964923;28;20038;-61
2022/04/05 02:56:13;;;;;;;17.38;4.43;;;;;;;6.86;97.13;100425.59;4965091;28;20100;-61
2022/04/05 02:58:38;;;;;;;13.50;3.83;;;;;;;6.89;96.91;100428.09;4982820;28;20048;-61
2022/04/05 03:01:06;;;;;;;11.48;4.53;;;;;;;6.87;96.55;100424.63;4961411;28;20387;-60
2022/04/05 03:03:33;;;;;;;8.63;3.92;;;;;;;6.87;97.02;100422.00;4945484;28;20050;-60
2022/04/05 03:05:59;;;;;;;8.70;4.18;;;;;;;6.87;96.95;100427.28;4945354;28;20035;-61
2022/04/05 03:08:25;;;;;;;12.23;4.00;;;;;;;6.86;96.47;100430.88;4963302;28;20035;-60
2022/04/05 03:10:52;;;;;;;12.60;4.82;;;;;;;6.84;96.62;100427.47;4961656;28;20046;-60
2022/04/05 03:13:19;;;;;;;7.65;4.20;;;;;;;6.88;96.59;100436.97;4945820;28;20078;-60
2022/04/05 03:15:45;;;;;;;11.13;4.53;;;;;;;6.89;96.98;100436.03;4945142;28;20034;-61
2022/04/05 03:18:12;;;;;;;9.23;4.68;;;;;;;6.90;96.49;100441.25;4961367;28;20558;-60
2022/04/05 03:20:38;;;;;;;11.05;4.78;;;;;;;6.91;96.37;100435.00;4944968;28;20080;-61
2022/04/05 03:23:04;;;;;;;11.95;4.20;;;;;;;6.90;96.55;100438.59;4962586;28;20496;-61
2022/04/05 03:25:30;;;;;;;15.25;5.10;;;;;;;6.86;96.01;100442.34;4962429;28;20039;-61
2022/04/05 03:28:01;;;;;;;16.65;4.93;;;;;;;6.90;96.08;100440.38;4944650;28;20739;-61
2022/04/05 03:30:27;;;;;;;12.93;4.72;;;;;;;6.86;96.65;100439.69;4944853;28;20687;-61
2022/04/05 03:32:55;;;;;;;13.95;4.95;;;;;;;6.87;96.25;100435.25;4944947;28;20840;-61
2022/04/05 03:35:20;;;;;;;17.00;5.50;;;;;;;6.89;97.44;100436.03;4945825;28;20043;-61
2022/04/05 03:37:46;;;;;;;15.63;5.90;;;;;;;6.86;96.83;100434.38;4964452;28;20129;-60
2022/04/05 03:40:12;;;;;;;14.65;5.35;;;;;;;6.92;96.91;100438.50;4963440;28;20046;-61
2022/04/05 03:42:39;;;;;;;16.23;6.40;;;;;;;6.84;97.15;100436.28;4979683;28;20092;-60
2022/04/05 03:45:06;;;;;;;19.55;6.97;;;;;;;6.88;97.41;100431.69;4977261;28;20696;-61
2022/04/05 03:47:32;;;;;;;22.33;8.73;;;;;;;6.87;96.67;100437.88;4980677;28;20052;-60
2022/04/05 03:49:58;;;;;;;19.25;7.95;;;;;;;6.89;96.73;100426.28;4963941;28;20034;-61
2022/04/05 03:52:24;;;;;;;23.23;7.80;;;;;;;6.86;96.70;100434.38;4963764;28;20038;-60
2022/04/05 03:54:50;;;;;;;21.98;8.30;;;;;;;6.89;97.07;100439.53;4979875;28;20522;-61
2022/04/05 03:57:19;;;;;;;23.52;8.43;;;;;;;6.92;97.56;100438.50;4963282;28;20093;-61
2022/04/05 03:59:45;;;;;;;25.92;9.70;;;;;;;6.88;97.02;100439.63;4979897;28;20054;-61
2022/04/05 04:02:10;;;;;;;20.45;8.35;;;;;;;6.89;96.74;100443.97;4979391;28;20044;-61
2022/04/05 04:04:38;;;;;;;23.60;8.35;;;;;;;6.90;96.72;100435.94;4979401;28;20116;-61
2022/04/05 04:07:05;;;;;;;26.33;8.93;;;;;;;6.90;97.40;100438.59;4963813;28;20070;-60
2022/04/05 04:09:31;;;;;;;24.77;8.60;;;;;;;6.87;96.19;100433.44;4979721;28;20061;-61
2022/04/05 04:11:57;;;;;;;21.35;8.82;;;;;;;6.91;97.41;100436.78;4981452;28;21019;-61
2022/04/05 04:14:22;;;;;;;20.42;8.80;;;;;;;6.88;96.98;100427.22;4963512;28;20042;-61
2022/04/05 04:16:48;;;;;;;24.77;10.35;;;;;;;6.87;97.05;100437.88;4979992;28;20038;-61
2022/04/05 04:19:14;;;;;;;25.48;10.05;;;;;;;6.89;96.39;100434.22;4979384;28;20042;-61
2022/04/05 04:21:40;;;;;;;28.75;10.23;;;;;;;6.95;96.66;100433.03;4979234;28;20041;-61
2022/04/05 04:24:05;;;;;;;31.58;10.52;;;;;;;6.93;96.92;100424.31;4963314;28;20518;-60
2022/04/05 04:26:31;;;;;;;29.92;10.45;;;;;;;6.87;96.89;100422.84;4979650;28;20042;-61
2022/04/05 04:29:00;;;;;;;32.38;9.98;;;;;;;6.89;96.87;100430.72;4979680;28;20035;-61
2022/04/05 04:31:26;;;;;;;31.70;10.88;;;;;;;6.92;96.33;100431.41;4979543;28;20185;-61
2022/04/05 04:33:52;;;;;;;27.65;10.10;;;;;;;6.91;96.19;100423.53;4980292;28;20050;-60
2022/04/05 04:36:17;;;;;;;26.23;9.32;;;;;;;6.95;96.27;100431.25;4977846;28;20038;-61
2022/04/05 04:38:43;;;;;;;35.95;11.10;;;;;;;6.99;96.14;100426.63;4980597;28;20038;-61
2022/04/05 04:41:09;;;;;;;29.42;11.13;;;;;;;6.94;97.06;100429.53;4980171;28;20145;-61
2022/04/05 04:43:35;;;;;;;34.60;11.25;;;;;;;6.98;96.33;100436.38;4980537;28;20129;-61
2022/04/05 04:46:00;;;;;;;34.90;12.00;;;;;;;6.94;96.97;100434.84;4979821;28;20046;-61
2022/04/05 04:48:27;;;;;;;31.23;11.60;;;;;;;7.05;96.65;100438.69;4980484;28;20050;-60
2022/04/05 04:50:52;;;;;;;32.10;10.48;;;;;;;7.04;96.46;100443.13;4980307;28;20564;-61
2022/04/05 04:53:18;;;;;;;35.72;11.90;;;;;;;6.99;96.38;100443.38;4978703;28;20045;-60
2022/04/05 04:55:43;;;;;;;42.08;12.27;;;;;;;7.03;96.57;100425.53;4962567;28;20514;-61
2022/04/05 04:58:09;;;;;;;32.15;10.80;;;;;;;6.99;96.73;100431.94;4979913;28;20056;-61
2022/04/05 05:00:34;;;;;;;34.47;11.60;;;;;;;6.93;96.57;100434.94;4977411;28;20046;-61
2022/04/05 05:03:00;;;;;;;34.83;11.43;;;;;;;6.94;96.46;100429.53;4979212;28;20735;-61
2022/04/05 05:05:25;;;;;;;40.25;11.68;;;;;;;6.96;96.58;100434.75;4950240;28;20038;-62
2022/04/05 05:07:52;;;;;;;36.05;12.13;;;;;;;6.97;97.26;100421.41;4978542;28;20759;-61
2022/04/05 05:10:19;;;;;;;45.05;11.55;;;;;;;7.01;97.26;100427.38;4977544;28;20042;-61
2022/04/05 05:12:45;;;;;;;43.25;11.98;;;;;;;6.97;97.14;100418.75;4979965;28;20053;-61
2022/04/05 05:15:17;;;;;;;33.15;11.52;;;;;;;7.00;97.08;100423.03;4979572;28;20754;-61
2022/04/05 05:17:42;;;;;;;34.55;11.60;;;;;;;7.03;97.68;100420.22;4971261;28;20046;-60
2022/04/05 05:20:09;;;;;;;49.88;12.98;;;;;;;7.00;97.10;100417.72;4960425;28;20816;-60
2022/04/05 05:22:35;;;;;;;53.33;12.73;;;;;;;7.02;96.96;100413.19;4964143;28;20068;-61
2022/04/05 05:25:01;;;;;;;38.55;12.48;;;;;;;7.08;97.34;100423.47;4976361;28;20070;-61
2022/04/05 05:27:28;;;;;;;59.22;14.80;;;;;;;7.07;96.61;100423.53;4960911;28;20257;-61
2022/04/05 05:29:53;;;;;;;54.58;13.93;;;;;;;7.09;97.35;100422.53;4979194;28;20427;-61
2022/04/05 05:32:19;;;;;;;52.05;14.52;;;;;;;7.08;96.71;100418.19;4979379;28;20061;-61
2022/04/05 05:34:45;;;;;;;55.67;14.05;;;;;;;7.12;97.23;100413.53;4980109;28;20706;-62
2022/04/05 05:37:10;;;;;;;55.42;14.70;;;;;;;7.11;97.09;100417.13;4962297;28;20042;-61
2022/04/05 05:39:37;;;;;;;47.28;13.70;;;;;;;7.18;97.20;100419.38;4979311;28;20125;-61
2022/04/05 05:42:06;;;;;;;57.20;13.95;;;;;;;7.17;97.11;100427.38;4965385;28;20133;-61
2022/04/05 05:44:33;;;;;;;53.92;15.57;;;;;;;7.20;96.75;100425.44;4964403;28;20938;-61
2022/04/05 05:46:58;;;;;;;50.30;13.55;;;;;;;7.19;97.29;100418.41;4978377;28;20152;-61
2022/04/05 05:49:24;;;;;;;43.53;14.25;;;;;;;7.20;96.90;100430.72;4958199;28;20120;-62
2022/04/05 05:51:50;;;;;;;45.85;13.27;;;;;;;7.26;96.90;100429.53;4976733;28;20035;-63
2022/04/05 05:54:16;;;;;;;63.53;15.48;;;;;;;7.26;96.52;100429.53;4979677;28;20575;-61
2022/04/05 05:56:42;;;;;;;61.42;15.82;;;;;;;7.31;97.11;100430.13;4979360;28;20065;-61
2022/04/05 05:59:07;;;;;;;58.05;15.68;;;;;;;7.27;97.18;100429.44;4977555;28;20064;-61
2022/04/05 06:01:33;;;;;;;70.97;16.83;;;;;;;7.29;96.75;100432.03;4980718;28;20080;-61
2022/04/05 06:03:58;;;;;;;80.47;18.75;;;;;;;7.36;96.55;100432.53;4980569;28;20046;-61
2022/04/05 06:06:24;;;;;;;64.25;17.10;;;;;;;7.36;96.71;100432.53;4963191;28;20042;-61
2022/04/05 06:08:49;;;;;;;80.82;18.20;;;;;;;7.41;96.46;100433.13;4981862;28;20232;-61
2022/04/05 06:11:15;;;;;;;83.13;17.75;;;;;;;7.45;97.17;100430.19;4981647;28;20046;-61
2022/04/05 06:13:41;;;;;;;70.82;17.48;;;;;;;7.41;96.54;100433.13;4980723;28;20582;-61
2022/04/05 06:16:09;;;;;;;85.78;18.52;;;;;;;7.42;97.06;100429.50;4980392;28;20046;-61
2022/04/05 06:18:34;;;;;;;70.60;17.75;;;;;;;7.41;97.09;100433.13;4980716;28;20105;-62
2022/04/05 06:21:00;;;;;;;86.28;18.58;;;;;;;7.42;96.68;100429.50;4980611;28;20066;-61
2022/04/05 06:23:25;;;;;;;84.88;17.60;;;;;;;7.42;96.93;100430.38;4979476;28;20046;-61
2022/04/05 06:25:51;;;;;;;92.85;19.65;;;;;;;7.43;97.02;100432.09;4979639;28;20177;-61
2022/04/05 06:28:18;;;;;;;73.63;16.85;;;;;;;7.49;96.96;100430.88;4979102;28;20042;-61
2022/04/05 06:30:44;;;;;;;80.82;19.25;;;;;;;7.55;96.71;100438.50;4980455;28;20046;-61
2022/04/05 06:33:10;;;;;;;99.32;21.27;;;;;;;7.58;96.97;100429.47;4979048;28;20592;-62
2022/04/05 06:35:42;;;;;;;77.60;19.58;;;;;;;7.66;96.36;100429.91;4978698;28;20054;-62
2022/04/05 06:38:08;;;;;;;89.82;21.13;;;;;;;7.74;96.77;100433.00;4979676;28;20038;-63
2022/04/05 06:40:33;;;;;;;95.57;20.83;;;;;;;7.76;96.61;100431.09;4979198;28;20398;-61
2022/04/05 06:42:59;;;;;;;91.40;22.27;;;;;;;7.80;96.63;100427.31;4979592;28;20045;-61
2022/04/05 06:45:25;;;;;;;83.15;22.00;;;;;;;7.86;97.01;100436.72;4978898;28;20460;-62
2022/04/05 06:47:51;;;;;;;84.07;22.48;;;;;;;7.92;96.70;100436.34;4979511;28;20074;-62
2022/04/05 06:50:20;;;;;;;89.07;24.42;;;;;;;8.09;96.59;100433.56;4979009;28;20056;-61
2022/04/05 06:52:47;;;;;;;95.28;24.42;;;;;;;8.17;96.78;100439.25;4979384;28;20042;-62
2022/04/05 06:55:12;;;;;;;89.32;23.80;;;;;;;8.23;96.72;100438.91;4979332;28;20117;-61
2022/04/05 06:57:38;;;;;;;82.43;23.80;;;;;;;8.31;96.50;100435.78;4979586;28;20042;-61
2022/04/05 07:00:06;;;;;;;88.07;24.70;;;;;;;8.45;95.94;100427.00;4970572;28;20157;-61
2022/04/05 07:02:32;;;;;;;87.38;24.63;;;;;;;8.64;96.06;100427.59;4959972;28;20054;-62
2022/04/05 07:04:58;;;;;;;81.00;22.17;;;;;;;8.69;95.59;100428.16;4958685;28;20039;-61
2022/04/05 07:07:23;;;;;;;78.03;24.67;;;;;;;8.73;95.72;100434.97;4960508;28;20042;-61
2022/04/05 07:09:48;;;;;;;79.65;24.65;;;;;;;8.82;95.70;100431.72;4960221;28;20809;-61
2022/04/05 07:12:14;;;;;;;68.78;22.08;;;;;;;8.84;95.89;100431.66;4959697;28;20411;-62
2022/04/05 07:14:39;;;;;;;55.50;18.98;;;;;;;8.98;95.50;100439.59;4959907;28;20039;-61
2022/04/05 07:17:05;;;;;;;60.30;21.00;;;;;;;9.06;95.51;100439.13;4960026;28;20042;-61
2022/04/05 07:19:30;;;;;;;64.45;20.83;;;;;;;9.04;95.16;100433.06;4942518;28;20051;-61
2022/04/05 07:21:55;;;;;;;59.95;20.75;;;;;;;9.03;95.43;100436.66;4960090;28;20049;-62
2022/04/05 07:24:21;;;;;;;57.25;21.30;;;;;;;9.07;95.07;100438.16;4963334;28;20043;-61
2022/04/05 07:26:46;;;;;;;61.45;21.48;;;;;;;9.12;94.71;100432.56;4961357;28;20042;-62
2022/04/05 07:29:12;;;;;;;71.63;22.38;;;;;;;9.15;94.64;100427.06;4962630;28;20043;-62
2022/04/05 07:31:38;;;;;;;71.20;23.35;;;;;;;9.17;94.50;100427.78;4962363;28;20110;-61
2022/04/05 07:34:04;;;;;;;71.25;23.55;;;;;;;9.14;94.52;100423.53;4963875;28;20047;-61
2022/04/05 07:36:30;;;;;;;59.03;22.63;;;;;;;9.19;94.01;100423.25;4961957;28;20345;-62
2022/04/05 07:38:56;;;;;;;66.78;22.20;;;;;;;9.21;93.71;100426.66;4963379;28;20047;-62
2022/04/05 07:41:22;;;;;;;65.88;21.90;;;;;;;9.26;93.82;100429.88;4962997;28;20038;-61
2022/04/05 07:43:47;;;;;;;64.75;22.10;;;;;;;9.19;94.13;100429.41;4963030;28;20071;-61
2022/04/05 07:46:13;;;;;;;60.67;20.92;;;;;;;9.20;94.56;100427.59;4962875;28;20106;-61
2022/04/05 07:48:39;;;;;;;59.75;21.35;;;;;;;9.28;94.00;100430.59;4962994;28;20050;-61
2022/04/05 07:51:05;;;;;;;60.42;21.73;;;;;;;9.38;94.14;100433.53;4962408;28;20043;-61
2022/04/05 07:53:31;;;;;;;57.05;19.42;;;;;;;9.49;93.42;100437.22;4962460;28;20056;-62
2022/04/05 07:55:57;;;;;;;63.08;20.48;;;;;;;9.53;93.25;100437.84;4962470;28;20922;-62
2022/04/05 07:58:23;;;;;;;69.50;20.08;;;;;;;9.63;93.18;100438.94;4962111;28;20416;-62
2022/04/05 08:00:49;;;;;;;47.78;18.17;;;;;;;9.73;93.20;100440.06;4977117;28;20046;-62
2022/04/05 08:03:14;;;;;;;43.88;18.05;;;;;;;10.00;92.15;100442.69;4981353;28;20050;-62
2022/04/05 08:05:43;;;;;;;51.03;17.38;;;;;;;10.18;90.64;100434.41;4981219;28;20633;-62
2022/04/05 08:08:09;;;;;;;49.55;17.92;;;;;;;10.20;90.94;100437.84;4981205;28;20053;-62
2022/04/05 08:10:35;;;;;;;47.10;17.75;;;;;;;10.28;90.20;100441.69;4981255;28;20046;-62
2022/04/05 08:13:00;;;;;;;44.70;17.17;;;;;;;9.92;91.42;100437.03;4980680;28;20050;-62
2022/04/05 08:15:26;;;;;;;40.45;17.30;;;;;;;9.94;91.97;100440.44;4979091;28;20100;-61
2022/04/05 08:17:52;;;;;;;42.10;16.63;;;;;;;9.90;91.95;100433.63;4980757;28;20488;-62
2022/04/05 08:20:19;;;;;;;39.53;16.88;;;;;;;9.93;91.86;100449.38;4980173;28;20068;-62
2022/04/05 08:22:45;;;;;;;37.05;15.57;;;;;;;9.77;92.35;100443.38;4977215;28;20027;-62
2022/04/05 08:25:14;;;;;;;46.47;16.40;;;;;;;9.75;92.60;100450.63;4980771;28;20835;-62
2022/04/05 08:27:40;;;;;;;45.97;16.25;;;;;;;9.96;93.05;100456.31;4963301;28;20389;-62
2022/04/05 08:30:08;;;;;;;36.50;14.98;;;;;;;9.89;92.72;100452.34;4956595;28;20711;-61
2022/04/05 08:32:36;;;;;;;34.80;15.75;;;;;;;10.02;92.50;100456.75;4976043;28;20792;-63
2022/04/05 08:35:03;;;;;;;38.47;14.52;;;;;;;10.08;92.01;100460.81;4980504;28;20069;-62
2022/04/05 08:37:28;;;;;;;35.65;13.77;;;;;;;9.93;92.00;100452.03;4980938;28;20065;-62
2022/04/05 08:39:55;;;;;;;31.02;13.85;;;;;;;9.96;91.45;100454.50;4980782;28;20471;-62
2022/04/05 08:42:21;;;;;;;29.70;13.55;;;;;;;9.94;91.66;100456.44;4980448;28;20046;-62
2022/04/05 08:44:49;;;;;;;35.65;12.88;;;;;;;10.13;91.90;100464.88;4980270;28;20061;-61
2022/04/05 08:47:16;;;;;;;23.65;11.82;;;;;;;10.12;91.56;100460.50;4979864;28;20038;-61
2022/04/05 08:49:43;;;;;;;28.52;12.07;;;;;;;10.27;90.26;100465.78;4978092;28;20849;-61
2022/04/05 08:52:08;;;;;;;26.52;12.55;;;;;;;10.31;90.48;100476.13;4980032;28;20078;-62
2022/04/05 08:54:34;;;;;;;21.15;12.20;;;;;;;10.35;91.08;100474.13;4981025;28;20053;-62
2022/04/05 08:56:59;;;;;;;22.35;10.18;;;;;;;10.32;90.84;100471.66;4981067;28;20041;-61
2022/04/05 08:59:29;;;;;;;27.88;11.75;;;;;;;10.69;90.06;100477.09;4980163;28;20451;-61
2022/04/05 09:01:54;;;;;;;22.63;10.38;;;;;;;10.68;89.70;100475.41;4980161;28;20742;-62
2022/04/05 09:04:20;;;;;;;18.35;9.93;;;;;;;10.76;89.64;100467.72;4980288;28;20046;-62
2022/04/05 09:06:46;;;;;;;24.73;10.77;;;;;;;11.19;88.24;100470.00;4980307;28;20035;-61
2022/04/05 09:09:14;;;;;;;18.52;8.85;;;;;;;10.83;88.23;100475.19;4962155;28;20565;-61
2022/04/05 09:11:44;;;;;;;24.08;9.90;;;;;;;11.15;88.53;100482.75;4979001;28;20062;-62
2022/04/05 09:14:10;;;;;;;18.30;10.43;;;;;;;11.40;87.03;100465.81;4979065;28;20078;-61
2022/04/05 09:16:35;;;;;;;19.67;9.73;;;;;;;11.35;88.19;100462.63;4979164;28;20418;-63
2022/04/05 09:19:13;;;;;;;19.45;10.25;;;;;;;11.34;87.04;100463.56;4980520;28;20042;-62
2022/04/05 09:21:52;;;;;;;15.75;9.13;;;;;;;11.36;87.52;100464.31;4980419;28;20526;-62
2022/04/05 09:24:18;;;;;;;18.13;9.63;;;;;;;11.76;86.95;100456.03;4980169;28;20129;-62
2022/04/05 09:26:44;;;;;;;17.10;9.38;;;;;;;11.81;84.71;100470.75;4980395;28;20782;-62
2022/04/05 09:29:10;;;;;;;21.42;10.40;;;;;;;11.97;86.10;100470.50;4980051;28;20034;-62
2022/04/05 09:31:48;;;;;;;17.00;10.20;;;;;;;12.01;84.35;100471.13;4979179;28;20562;-63
2022/04/05 09:34:19;;;;;;;20.42;10.38;;;;;;;11.54;84.82;100473.63;4979768;28;20860;-62
2022/04/05 09:36:48;;;;;;;18.92;9.93;;;;;;;11.91;84.85;100468.28;4983428;28;20054;-61
2022/04/05 09:39:16;;;;;;;18.98;10.00;;;;;;;12.16;83.89;100470.81;4983502;28;20038;-62
2022/04/05 09:42:02;;;;;;;20.40;9.85;;;;;;;12.52;82.69;100474.31;4981617;28;20062;-62
2022/04/05 09:44:33;;;;;;;16.25;8.55;;;;;;;12.67;83.14;100473.09;4986739;28;20179;-62
2022/04/05 09:47:08;;;;;;;16.52;9.00;;;;;;;12.01;83.82;100471.97;4978435;28;20088;-62
2022/04/05 09:49:36;;;;;;;16.05;8.45;;;;;;;11.42;85.50;100474.53;4982905;28;20054;-62
2022/04/05 09:52:03;;;;;;;15.40;8.13;;;;;;;11.21;86.62;100481.44;4983388;28;20821;-63
2022/04/05 09:54:30;;;;;;;20.10;8.50;;;;;;;11.45;86.51;100470.81;4983080;28;20033;-62
2022/04/05 09:57:07;;;;;;;12.82;7.68;;;;;;;11.63;84.79;100467.63;4982704;28;20125;-61
2022/04/05 09:59:43;;;;;;;14.85;7.50;;;;;;;11.70;84.98;100462.69;4982027;28;20054;-61
2022/04/05 10:02:17;;;;;;;15.13;8.45;;;;;;;11.66;86.88;100458.53;4983163;28;20048;-62
2022/04/05 10:05:12;;;;;;;15.10;8.05;;;;;;;11.22;86.41;100459.97;4983395;28;20042;-62
2022/04/05 10:07:37;;;;;;;17.08;8.30;;;;;;;11.33;87.36;100456.53;4945066;28;20058;-62
2022/04/05 10:10:06;;;;;;;19.08;8.88;;;;;;;11.19;87.49;100468.19;4983530;28;20073;-62
2022/04/05 10:12:31;;;;;;;15.07;8.45;;;;;;;11.15;87.57;100464.06;4983420;28;20051;-62
2022/04/05 10:14:59;;;;;;;10.57;8.05;;;;;;;11.20;87.31;100464.56;4983728;28;20050;-61
2022/04/05 10:17:27;;;;;;;12.20;7.72;;;;;;;11.33;86.93;100467.19;4983250;28;20038;-62
2022/04/05 10:19:54;;;;;;;10.63;7.68;;;;;;;11.30;86.69;100472.78;4982990;28;20050;-62
2022/04/05 10:22:20;;;;;;;15.18;7.97;;;;;;;10.92;86.82;100473.69;4982845;28;20041;-61
2022/04/05 10:24:49;;;;;;;15.27;7.60;;;;;;;10.68;88.52;100475.41;4982722;28;20608;-61
2022/04/05 10:27:17;;;;;;;11.85;6.72;;;;;;;10.63;89.64;100481.91;4981209;28;20050;-62
2022/04/05 10:29:44;;;;;;;11.57;6.65;;;;;;;10.79;88.72;100492.38;4982982;28;20046;-60
2022/04/05 10:32:27;;;;;;;10.55;7.53;;;;;;;11.36;86.77;100477.66;4983174;28;20136;-61
2022/04/05 10:35:01;;;;;;;8.77;6.15;;;;;;;11.21;87.46;100484.13;4982521;28;20092;-61
2022/04/05 10:37:31;;;;;;;10.05;5.88;;;;;;;10.85;88.67;100483.09;4974055;28;20122;-60
2022/04/05 10:39:56;;;;;;;11.35;5.28;;;;;;;10.66;91.27;100491.53;4982394;28;20081;-61
2022/04/05 10:42:25;;;;;;;9.18;5.05;;;;;;;10.51;90.86;100490.75;4982698;28;20046;-61
2022/04/05 10:45:40;;;;;;;10.95;5.60;;;;;;;10.74;90.70;100502.50;4981824;28;20038;-61
2022/04/05 10:48:12;;;;;;;10.70;6.75;;;;;;;11.05;89.23;100485.22;4959509;28;20089;-61
2022/04/05 10:50:38;;;;;;;11.95;7.70;;;;;;;11.60;88.01;100486.56;4982203;28;20042;-61
2022/04/05 10:53:29;;;;;;;13.85;7.95;;;;;;;11.67;87.52;100486.94;4982194;28;20043;-64
2022/04/05 10:56:03;;;;;;;12.30;7.30;;;;;;;11.73;87.57;100485.66;4982156;28;20068;-61
2022/04/05 10:58:36;;;;;;;15.20;7.93;;;;;;;11.76;88.13;100486.28;4982302;28;20097;-61
2022/04/05 11:01:21;;;;;;;;;;;;;;;11.77;85.75;100493.31;4966037;28;20130;-61
2022/04/05 11:04:18;;;;;;;14.27;8.27;;;;;;;12.33;85.76;100487.38;4962264;28;19925;-62
2022/04/05 11:06:59;;;;;;;16.23;9.57;;;;;;;12.53;84.92;100494.72;4962439;28;20128;-62
2022/04/05 11:09:35;;;;;;;16.40;8.85;;;;;;;12.47;82.82;100487.19;4960025;28;20073;-62
2022/04/05 11:12:03;;;;;;;19.10;9.95;;;;;;;12.43;82.50;100485.69;4962496;28;20053;-62
2022/04/05 11:14:39;;;;;;;18.08;9.60;;;;;;;12.28;84.56;100489.56;4962407;28;20069;-61
2022/04/05 11:17:09;;;;;;;16.67;9.75;;;;;;;11.90;84.56;100483.47;4960683;28;20057;-62
2022/04/05 11:19:41;;;;;;;14.35;8.48;;;;;;;12.08;85.81;100481.22;4944829;28;20043;-62
2022/04/05 11:22:22;;;;;;;18.85;9.52;;;;;;;12.41;83.25;100480.47;4973505;28;20034;-62
2022/04/05 11:24:56;;;;;;;16.25;8.38;;;;;;;11.95;84.18;100477.78;4963017;28;20199;-62